sensor_id;sensor_type;location;lat;lon;timestamp;P1;durP1;ratioP1;P2;durP2;ratioP2
22881;SDS011;11608;50.894;5.296;2023-06-22T00:01:51;24.85;;;22.83;;
22881;SDS011;11608;50.894;5.296;2023-06-22T00:04:17;24.52;;;22.65;;
22881;SDS011;11608;50.894;5.296;2023-06-22T00:06:43;24.30;;;22.45;;
22881;SDS011;11608;50.894;5.296;2023-06-22T00:09:09;25.17;;;23.35;;
22881;SDS011;11608;50.894;5.296;2023-06-22T00:11:35;24.73;;;22.55;;
22881;SDS011;11608;50.894;5.296;2023-06-22T00:14:02;24.70;;;22.60;;
22881;SDS011;11608;50.894;5.296;2023-06-22T00:16:28;23.70;;;21.83;;
22881;SDS011;11608;50.894;5.296;2023-06-22T00:18:54;24.30;;;22.10;;
22881;SDS011;11608;50.894;5.296;2023-06-22T00:21:20;23.83;;;21.92;;
22881;SDS011;11608;50.894;5.296;2023-06-22T00:23:46;23.88;;;21.95;;
22881;SDS011;11608;50.894;5.296;2023-06-22T00:26:13;23.20;;;21.30;;
22881;SDS011;11608;50.894;5.296;2023-06-22T00:28:39;24.35;;;22.25;;
22881;SDS011;11608;50.894;5.296;2023-06-22T00:31:05;23.90;;;21.90;;
22881;SDS011;11608;50.894;5.296;2023-06-22T00:33:31;23.75;;;21.65;;
22881;SDS011;11608;50.894;5.296;2023-06-22T00:35:57;23.95;;;21.95;;
22881;SDS011;11608;50.894;5.296;2023-06-22T00:38:23;24.02;;;21.95;;
22881;SDS011;11608;50.894;5.296;2023-06-22T00:40:49;24.75;;;22.75;;
22881;SDS011;11608;50.894;5.296;2023-06-22T00:43:15;24.23;;;22.13;;
22881;SDS011;11608;50.894;5.296;2023-06-22T00:45:41;24.02;;;22.23;;
22881;SDS011;11608;50.894;5.296;2023-06-22T00:48:07;25.48;;;23.35;;
22881;SDS011;11608;50.894;5.296;2023-06-22T00:50:34;24.95;;;22.73;;
22881;SDS011;11608;50.894;5.296;2023-06-22T00:53:09;23.63;;;21.88;;
22881;SDS011;11608;50.894;5.296;2023-06-22T00:55:42;23.90;;;21.80;;
22881;SDS011;11608;50.894;5.296;2023-06-22T00:58:09;24.48;;;22.25;;
22881;SDS011;11608;50.894;5.296;2023-06-22T01:00:35;24.30;;;22.20;;
22881;SDS011;11608;50.894;5.296;2023-06-22T01:03:02;25.30;;;22.70;;
22881;SDS011;11608;50.894;5.296;2023-06-22T01:05:28;25.83;;;23.25;;
22881;SDS011;11608;50.894;5.296;2023-06-22T01:10:24;32.47;;;24.35;;
22881;SDS011;11608;50.894;5.296;2023-06-22T01:12:52;33.55;;;24.30;;
22881;SDS011;11608;50.894;5.296;2023-06-22T01:15:20;29.65;;;24.80;;
22881;SDS011;11608;50.894;5.296;2023-06-22T01:17:47;37.83;;;25.90;;
22881;SDS011;11608;50.894;5.296;2023-06-22T01:20:14;32.58;;;25.63;;
22881;SDS011;11608;50.894;5.296;2023-06-22T01:22:48;31.02;;;25.40;;
22881;SDS011;11608;50.894;5.296;2023-06-22T01:25:21;38.55;;;26.85;;
22881;SDS011;11608;50.894;5.296;2023-06-22T01:30:27;40.25;;;26.50;;
22881;SDS011;11608;50.894;5.296;2023-06-22T01:32:54;45.90;;;27.92;;
22881;SDS011;11608;50.894;5.296;2023-06-22T01:35:21;37.70;;;25.98;;
22881;SDS011;11608;50.894;5.296;2023-06-22T01:37:47;38.45;;;25.17;;
22881;SDS011;11608;50.894;5.296;2023-06-22T01:40:14;37.20;;;25.17;;
22881;SDS011;11608;50.894;5.296;2023-06-22T01:42:40;34.15;;;25.65;;
22881;SDS011;11608;50.894;5.296;2023-06-22T01:45:08;33.70;;;25.55;;
22881;SDS011;11608;50.894;5.296;2023-06-22T01:47:34;36.08;;;25.63;;
22881;SDS011;11608;50.894;5.296;2023-06-22T01:50:01;40.50;;;27.35;;
22881;SDS011;11608;50.894;5.296;2023-06-22T01:52:27;39.47;;;25.83;;
22881;SDS011;11608;50.894;5.296;2023-06-22T01:54:53;42.58;;;27.10;;
22881;SDS011;11608;50.894;5.296;2023-06-22T01:57:19;37.83;;;26.23;;
22881;SDS011;11608;50.894;5.296;2023-06-22T02:02:15;37.45;;;25.27;;
22881;SDS011;11608;50.894;5.296;2023-06-22T02:04:44;37.03;;;25.17;;
22881;SDS011;11608;50.894;5.296;2023-06-22T02:07:13;39.92;;;24.13;;
22881;SDS011;11608;50.894;5.296;2023-06-22T02:09:42;31.80;;;23.33;;
22881;SDS011;11608;50.894;5.296;2023-06-22T02:12:10;32.05;;;23.90;;
22881;SDS011;11608;50.894;5.296;2023-06-22T02:14:37;24.65;;;22.17;;
22881;SDS011;11608;50.894;5.296;2023-06-22T02:17:03;25.02;;;22.45;;
22881;SDS011;11608;50.894;5.296;2023-06-22T02:19:35;22.55;;;20.48;;
22881;SDS011;11608;50.894;5.296;2023-06-22T02:22:01;23.60;;;21.58;;
22881;SDS011;11608;50.894;5.296;2023-06-22T02:24:27;23.10;;;21.20;;
22881;SDS011;11608;50.894;5.296;2023-06-22T02:26:56;23.58;;;21.52;;
22881;SDS011;11608;50.894;5.296;2023-06-22T02:29:22;22.50;;;20.70;;
22881;SDS011;11608;50.894;5.296;2023-06-22T02:31:48;22.73;;;20.83;;
22881;SDS011;11608;50.894;5.296;2023-06-22T02:34:14;23.08;;;21.38;;
22881;SDS011;11608;50.894;5.296;2023-06-22T02:36:46;23.27;;;21.30;;
22881;SDS011;11608;50.894;5.296;2023-06-22T02:39:25;22.88;;;21.05;;
22881;SDS011;11608;50.894;5.296;2023-06-22T02:41:54;22.35;;;20.65;;
22881;SDS011;11608;50.894;5.296;2023-06-22T02:44:20;23.55;;;21.70;;
22881;SDS011;11608;50.894;5.296;2023-06-22T02:46:47;24.73;;;22.60;;
22881;SDS011;11608;50.894;5.296;2023-06-22T02:49:13;25.40;;;23.17;;
22881;SDS011;11608;50.894;5.296;2023-06-22T02:51:44;26.35;;;23.90;;
22881;SDS011;11608;50.894;5.296;2023-06-22T02:54:11;25.95;;;23.60;;
22881;SDS011;11608;50.894;5.296;2023-06-22T02:56:37;26.65;;;24.25;;
22881;SDS011;11608;50.894;5.296;2023-06-22T02:59:03;27.48;;;24.90;;
22881;SDS011;11608;50.894;5.296;2023-06-22T03:01:29;27.48;;;25.17;;
22881;SDS011;11608;50.894;5.296;2023-06-22T03:04:05;28.65;;;25.75;;
22881;SDS011;11608;50.894;5.296;2023-06-22T03:06:31;27.95;;;25.55;;
22881;SDS011;11608;50.894;5.296;2023-06-22T03:08:59;28.90;;;26.27;;
22881;SDS011;11608;50.894;5.296;2023-06-22T03:11:26;29.55;;;26.88;;
22881;SDS011;11608;50.894;5.296;2023-06-22T03:13:52;30.02;;;27.25;;
22881;SDS011;11608;50.894;5.296;2023-06-22T03:16:18;29.40;;;26.70;;
22881;SDS011;11608;50.894;5.296;2023-06-22T03:18:44;30.48;;;27.67;;
22881;SDS011;11608;50.894;5.296;2023-06-22T03:21:10;29.83;;;26.95;;
22881;SDS011;11608;50.894;5.296;2023-06-22T03:23:36;31.55;;;28.60;;
22881;SDS011;11608;50.894;5.296;2023-06-22T03:26:02;29.60;;;26.83;;
22881;SDS011;11608;50.894;5.296;2023-06-22T03:28:29;30.92;;;27.70;;
22881;SDS011;11608;50.894;5.296;2023-06-22T03:30:57;31.00;;;28.25;;
22881;SDS011;11608;50.894;5.296;2023-06-22T03:33:23;30.10;;;27.30;;
22881;SDS011;11608;50.894;5.296;2023-06-22T03:35:49;30.02;;;27.48;;
22881;SDS011;11608;50.894;5.296;2023-06-22T03:38:16;31.80;;;28.10;;
22881;SDS011;11608;50.894;5.296;2023-06-22T03:40:42;32.50;;;29.48;;
22881;SDS011;11608;50.894;5.296;2023-06-22T03:43:08;31.40;;;28.15;;
22881;SDS011;11608;50.894;5.296;2023-06-22T03:45:34;31.40;;;28.70;;
22881;SDS011;11608;50.894;5.296;2023-06-22T03:48:00;31.15;;;28.38;;
22881;SDS011;11608;50.894;5.296;2023-06-22T03:50:27;32.67;;;29.73;;
22881;SDS011;11608;50.894;5.296;2023-06-22T03:52:53;31.77;;;28.75;;
22881;SDS011;11608;50.894;5.296;2023-06-22T03:55:19;32.08;;;29.17;;
22881;SDS011;11608;50.894;5.296;2023-06-22T03:57:45;32.10;;;28.95;;
22881;SDS011;11608;50.894;5.296;2023-06-22T04:00:11;32.63;;;29.42;;
22881;SDS011;11608;50.894;5.296;2023-06-22T04:02:38;32.30;;;28.95;;
22881;SDS011;11608;50.894;5.296;2023-06-22T04:05:04;32.50;;;29.48;;
22881;SDS011;11608;50.894;5.296;2023-06-22T04:07:30;31.98;;;28.90;;
22881;SDS011;11608;50.894;5.296;2023-06-22T04:09:56;31.15;;;28.38;;
22881;SDS011;11608;50.894;5.296;2023-06-22T04:12:22;32.17;;;29.08;;
22881;SDS011;11608;50.894;5.296;2023-06-22T04:14:48;32.35;;;29.25;;
22881;SDS011;11608;50.894;5.296;2023-06-22T04:17:14;32.67;;;29.45;;
22881;SDS011;11608;50.894;5.296;2023-06-22T04:19:40;32.78;;;29.55;;
22881;SDS011;11608;50.894;5.296;2023-06-22T04:22:06;31.60;;;28.70;;
22881;SDS011;11608;50.894;5.296;2023-06-22T04:24:33;31.30;;;28.40;;
22881;SDS011;11608;50.894;5.296;2023-06-22T04:26:59;31.58;;;28.40;;
22881;SDS011;11608;50.894;5.296;2023-06-22T04:29:27;31.98;;;29.05;;
22881;SDS011;11608;50.894;5.296;2023-06-22T04:31:55;31.98;;;28.98;;
22881;SDS011;11608;50.894;5.296;2023-06-22T04:34:23;31.65;;;28.77;;
22881;SDS011;11608;50.894;5.296;2023-06-22T04:36:52;33.38;;;30.17;;
22881;SDS011;11608;50.894;5.296;2023-06-22T04:39:18;31.00;;;27.95;;
22881;SDS011;11608;50.894;5.296;2023-06-22T04:41:45;33.28;;;29.52;;
22881;SDS011;11608;50.894;5.296;2023-06-22T04:44:11;30.85;;;27.88;;
22881;SDS011;11608;50.894;5.296;2023-06-22T04:46:38;32.40;;;29.23;;
22881;SDS011;11608;50.894;5.296;2023-06-22T04:49:05;32.03;;;28.73;;
22881;SDS011;11608;50.894;5.296;2023-06-22T04:51:31;31.75;;;28.75;;
22881;SDS011;11608;50.894;5.296;2023-06-22T04:53:58;32.33;;;28.90;;
22881;SDS011;11608;50.894;5.296;2023-06-22T04:56:26;32.50;;;29.60;;
22881;SDS011;11608;50.894;5.296;2023-06-22T04:58:53;33.22;;;29.67;;
22881;SDS011;11608;50.894;5.296;2023-06-22T05:01:22;33.40;;;29.70;;
22881;SDS011;11608;50.894;5.296;2023-06-22T05:03:48;32.63;;;29.45;;
22881;SDS011;11608;50.894;5.296;2023-06-22T05:06:14;29.80;;;26.80;;
22881;SDS011;11608;50.894;5.296;2023-06-22T05:08:40;34.25;;;30.92;;
22881;SDS011;11608;50.894;5.296;2023-06-22T05:11:06;34.20;;;30.67;;
22881;SDS011;11608;50.894;5.296;2023-06-22T05:13:32;33.00;;;30.02;;
22881;SDS011;11608;50.894;5.296;2023-06-22T05:15:58;29.80;;;26.92;;
22881;SDS011;11608;50.894;5.296;2023-06-22T05:18:28;33.50;;;30.30;;
22881;SDS011;11608;50.894;5.296;2023-06-22T05:20:54;28.48;;;25.88;;
22881;SDS011;11608;50.894;5.296;2023-06-22T05:23:20;34.13;;;30.90;;
22881;SDS011;11608;50.894;5.296;2023-06-22T05:25:46;34.97;;;31.52;;
22881;SDS011;11608;50.894;5.296;2023-06-22T05:28:12;33.72;;;30.75;;
22881;SDS011;11608;50.894;5.296;2023-06-22T05:30:38;34.80;;;31.40;;
22881;SDS011;11608;50.894;5.296;2023-06-22T05:33:04;35.63;;;32.33;;
22881;SDS011;11608;50.894;5.296;2023-06-22T05:35:31;35.42;;;32.03;;
22881;SDS011;11608;50.894;5.296;2023-06-22T05:37:57;28.70;;;26.25;;
22881;SDS011;11608;50.894;5.296;2023-06-22T05:40:23;35.22;;;31.77;;
22881;SDS011;11608;50.894;5.296;2023-06-22T05:42:49;32.80;;;29.70;;
22881;SDS011;11608;50.894;5.296;2023-06-22T05:45:15;35.38;;;31.88;;
22881;SDS011;11608;50.894;5.296;2023-06-22T05:47:41;36.17;;;32.65;;
22881;SDS011;11608;50.894;5.296;2023-06-22T05:50:07;37.33;;;33.75;;
22881;SDS011;11608;50.894;5.296;2023-06-22T05:52:34;34.67;;;31.30;;
22881;SDS011;11608;50.894;5.296;2023-06-22T05:55:01;36.60;;;33.33;;
22881;SDS011;11608;50.894;5.296;2023-06-22T05:57:27;37.67;;;34.03;;
22881;SDS011;11608;50.894;5.296;2023-06-22T05:59:53;37.38;;;33.60;;
22881;SDS011;11608;50.894;5.296;2023-06-22T06:02:19;36.78;;;33.10;;
22881;SDS011;11608;50.894;5.296;2023-06-22T06:04:45;36.60;;;33.35;;
22881;SDS011;11608;50.894;5.296;2023-06-22T06:07:11;37.60;;;33.47;;
22881;SDS011;11608;50.894;5.296;2023-06-22T06:09:37;34.53;;;31.35;;
22881;SDS011;11608;50.894;5.296;2023-06-22T06:12:03;33.72;;;30.65;;
22881;SDS011;11608;50.894;5.296;2023-06-22T06:14:29;36.00;;;32.58;;
22881;SDS011;11608;50.894;5.296;2023-06-22T06:16:55;36.03;;;32.85;;
22881;SDS011;11608;50.894;5.296;2023-06-22T06:19:21;35.65;;;32.47;;
22881;SDS011;11608;50.894;5.296;2023-06-22T06:21:47;34.40;;;31.13;;
22881;SDS011;11608;50.894;5.296;2023-06-22T06:24:14;32.22;;;29.27;;
22881;SDS011;11608;50.894;5.296;2023-06-22T06:26:40;37.75;;;34.30;;
22881;SDS011;11608;50.894;5.296;2023-06-22T06:29:06;34.33;;;31.25;;
22881;SDS011;11608;50.894;5.296;2023-06-22T06:31:32;32.03;;;29.20;;
22881;SDS011;11608;50.894;5.296;2023-06-22T06:33:58;31.40;;;28.55;;
22881;SDS011;11608;50.894;5.296;2023-06-22T06:36:24;36.63;;;33.38;;
22881;SDS011;11608;50.894;5.296;2023-06-22T06:38:50;34.75;;;31.75;;
22881;SDS011;11608;50.894;5.296;2023-06-22T06:41:16;35.70;;;32.75;;
22881;SDS011;11608;50.894;5.296;2023-06-22T06:43:43;36.88;;;33.40;;
22881;SDS011;11608;50.894;5.296;2023-06-22T06:46:09;38.22;;;34.72;;
22881;SDS011;11608;50.894;5.296;2023-06-22T06:48:35;34.78;;;31.33;;
22881;SDS011;11608;50.894;5.296;2023-06-22T06:51:01;30.10;;;27.60;;
22881;SDS011;11608;50.894;5.296;2023-06-22T06:53:27;32.97;;;29.95;;
22881;SDS011;11608;50.894;5.296;2023-06-22T06:55:53;37.97;;;34.42;;
22881;SDS011;11608;50.894;5.296;2023-06-22T06:58:19;37.38;;;34.00;;
22881;SDS011;11608;50.894;5.296;2023-06-22T07:00:48;36.20;;;33.10;;
22881;SDS011;11608;50.894;5.296;2023-06-22T07:03:14;36.90;;;33.63;;
22881;SDS011;11608;50.894;5.296;2023-06-22T07:05:40;36.85;;;33.78;;
22881;SDS011;11608;50.894;5.296;2023-06-22T07:08:06;37.00;;;33.80;;
22881;SDS011;11608;50.894;5.296;2023-06-22T07:10:32;35.90;;;32.65;;
22881;SDS011;11608;50.894;5.296;2023-06-22T07:12:58;36.13;;;32.92;;
22881;SDS011;11608;50.894;5.296;2023-06-22T07:15:24;34.85;;;31.70;;
22881;SDS011;11608;50.894;5.296;2023-06-22T07:17:50;37.40;;;34.10;;
22881;SDS011;11608;50.894;5.296;2023-06-22T07:20:16;38.30;;;34.60;;
22881;SDS011;11608;50.894;5.296;2023-06-22T07:22:44;36.08;;;32.70;;
22881;SDS011;11608;50.894;5.296;2023-06-22T07:25:10;36.08;;;32.80;;
22881;SDS011;11608;50.894;5.296;2023-06-22T07:27:40;35.20;;;32.10;;
22881;SDS011;11608;50.894;5.296;2023-06-22T07:30:08;34.20;;;31.30;;
22881;SDS011;11608;50.894;5.296;2023-06-22T07:32:34;35.30;;;32.13;;
22881;SDS011;11608;50.894;5.296;2023-06-22T07:35:00;31.08;;;28.52;;
22881;SDS011;11608;50.894;5.296;2023-06-22T07:37:27;33.33;;;30.40;;
22881;SDS011;11608;50.894;5.296;2023-06-22T07:39:54;33.50;;;30.40;;
22881;SDS011;11608;50.894;5.296;2023-06-22T07:42:24;34.30;;;31.17;;
22881;SDS011;11608;50.894;5.296;2023-06-22T07:44:50;36.75;;;33.47;;
22881;SDS011;11608;50.894;5.296;2023-06-22T07:47:16;37.67;;;34.10;;
22881;SDS011;11608;50.894;5.296;2023-06-22T07:49:45;37.05;;;33.67;;
22881;SDS011;11608;50.894;5.296;2023-06-22T07:52:12;37.83;;;34.55;;
22881;SDS011;11608;50.894;5.296;2023-06-22T07:54:38;37.53;;;34.20;;
22881;SDS011;11608;50.894;5.296;2023-06-22T07:57:05;35.95;;;32.75;;
22881;SDS011;11608;50.894;5.296;2023-06-22T07:59:31;39.30;;;35.78;;
22881;SDS011;11608;50.894;5.296;2023-06-22T08:01:57;38.55;;;34.63;;
22881;SDS011;11608;50.894;5.296;2023-06-22T08:04:23;38.55;;;34.92;;
22881;SDS011;11608;50.894;5.296;2023-06-22T08:06:49;38.05;;;34.55;;
22881;SDS011;11608;50.894;5.296;2023-06-22T08:09:15;38.28;;;34.67;;
22881;SDS011;11608;50.894;5.296;2023-06-22T08:11:41;37.15;;;33.80;;
22881;SDS011;11608;50.894;5.296;2023-06-22T08:14:07;39.38;;;35.97;;
22881;SDS011;11608;50.894;5.296;2023-06-22T08:16:33;38.17;;;35.17;;
22881;SDS011;11608;50.894;5.296;2023-06-22T08:18:59;38.28;;;34.78;;
22881;SDS011;11608;50.894;5.296;2023-06-22T08:21:25;37.55;;;34.15;;
22881;SDS011;11608;50.894;5.296;2023-06-22T08:23:51;38.47;;;35.17;;
22881;SDS011;11608;50.894;5.296;2023-06-22T08:26:17;36.58;;;33.15;;
22881;SDS011;11608;50.894;5.296;2023-06-22T08:28:43;36.92;;;33.53;;
22881;SDS011;11608;50.894;5.296;2023-06-22T08:31:09;37.50;;;33.97;;
22881;SDS011;11608;50.894;5.296;2023-06-22T08:33:37;37.85;;;34.50;;
22881;SDS011;11608;50.894;5.296;2023-06-22T08:36:03;38.30;;;34.65;;
22881;SDS011;11608;50.894;5.296;2023-06-22T08:38:31;38.17;;;34.92;;
22881;SDS011;11608;50.894;5.296;2023-06-22T08:40:57;37.75;;;34.50;;
22881;SDS011;11608;50.894;5.296;2023-06-22T08:43:23;38.13;;;34.72;;
22881;SDS011;11608;50.894;5.296;2023-06-22T08:45:49;38.28;;;34.90;;
22881;SDS011;11608;50.894;5.296;2023-06-22T08:48:15;38.17;;;34.53;;
22881;SDS011;11608;50.894;5.296;2023-06-22T08:50:41;38.08;;;34.63;;
22881;SDS011;11608;50.894;5.296;2023-06-22T08:53:07;37.03;;;33.83;;
22881;SDS011;11608;50.894;5.296;2023-06-22T08:55:33;39.03;;;35.63;;
22881;SDS011;11608;50.894;5.296;2023-06-22T08:57:59;37.50;;;34.10;;
22881;SDS011;11608;50.894;5.296;2023-06-22T09:00:25;39.50;;;35.90;;
22881;SDS011;11608;50.894;5.296;2023-06-22T09:02:53;38.55;;;35.13;;
22881;SDS011;11608;50.894;5.296;2023-06-22T09:05:24;39.15;;;35.65;;
22881;SDS011;11608;50.894;5.296;2023-06-22T09:07:53;39.38;;;35.88;;
22881;SDS011;11608;50.894;5.296;2023-06-22T09:10:20;38.83;;;35.28;;
22881;SDS011;11608;50.894;5.296;2023-06-22T09:12:46;38.78;;;35.38;;
22881;SDS011;11608;50.894;5.296;2023-06-22T09:15:12;38.00;;;34.53;;
22881;SDS011;11608;50.894;5.296;2023-06-22T09:17:38;40.85;;;37.15;;
22881;SDS011;11608;50.894;5.296;2023-06-22T09:20:04;39.63;;;36.00;;
22881;SDS011;11608;50.894;5.296;2023-06-22T09:22:31;39.17;;;35.63;;
22881;SDS011;11608;50.894;5.296;2023-06-22T09:24:58;40.97;;;37.15;;
22881;SDS011;11608;50.894;5.296;2023-06-22T09:27:25;40.30;;;36.60;;
22881;SDS011;11608;50.894;5.296;2023-06-22T09:29:51;37.55;;;34.03;;
22881;SDS011;11608;50.894;5.296;2023-06-22T09:32:17;41.17;;;37.28;;
22881;SDS011;11608;50.894;5.296;2023-06-22T09:34:43;39.80;;;36.17;;
22881;SDS011;11608;50.894;5.296;2023-06-22T09:37:09;38.35;;;34.67;;
22881;SDS011;11608;50.894;5.296;2023-06-22T09:39:35;39.58;;;35.97;;
22881;SDS011;11608;50.894;5.296;2023-06-22T09:42:01;39.67;;;35.90;;
22881;SDS011;11608;50.894;5.296;2023-06-22T09:44:28;40.90;;;37.10;;
22881;SDS011;11608;50.894;5.296;2023-06-22T09:46:54;39.83;;;35.80;;
22881;SDS011;11608;50.894;5.296;2023-06-22T09:49:20;39.38;;;35.92;;
22881;SDS011;11608;50.894;5.296;2023-06-22T09:51:46;39.08;;;35.67;;
22881;SDS011;11608;50.894;5.296;2023-06-22T09:54:12;41.40;;;37.42;;
22881;SDS011;11608;50.894;5.296;2023-06-22T09:56:38;41.63;;;37.55;;
22881;SDS011;11608;50.894;5.296;2023-06-22T09:59:04;42.63;;;38.55;;
22881;SDS011;11608;50.894;5.296;2023-06-22T10:01:30;42.80;;;39.15;;
22881;SDS011;11608;50.894;5.296;2023-06-22T10:03:56;44.05;;;39.88;;
22881;SDS011;11608;50.894;5.296;2023-06-22T10:06:22;44.70;;;40.72;;
22881;SDS011;11608;50.894;5.296;2023-06-22T10:08:50;44.75;;;40.78;;
22881;SDS011;11608;50.894;5.296;2023-06-22T10:11:16;42.80;;;38.70;;
22881;SDS011;11608;50.894;5.296;2023-06-22T10:13:42;46.20;;;41.80;;
22881;SDS011;11608;50.894;5.296;2023-06-22T10:16:08;45.83;;;41.45;;
22881;SDS011;11608;50.894;5.296;2023-06-22T10:18:34;48.15;;;43.67;;
22881;SDS011;11608;50.894;5.296;2023-06-22T10:21:01;49.78;;;44.47;;
22881;SDS011;11608;50.894;5.296;2023-06-22T10:23:27;49.83;;;44.55;;
22881;SDS011;11608;50.894;5.296;2023-06-22T10:25:53;49.50;;;44.53;;
22881;SDS011;11608;50.894;5.296;2023-06-22T10:28:19;52.20;;;46.83;;
22881;SDS011;11608;50.894;5.296;2023-06-22T10:30:45;51.28;;;46.33;;
22881;SDS011;11608;50.894;5.296;2023-06-22T10:33:11;48.08;;;43.35;;
22881;SDS011;11608;50.894;5.296;2023-06-22T10:35:38;49.75;;;44.55;;
22881;SDS011;11608;50.894;5.296;2023-06-22T10:38:04;48.30;;;43.53;;
22881;SDS011;11608;50.894;5.296;2023-06-22T10:40:30;48.17;;;43.35;;
22881;SDS011;11608;50.894;5.296;2023-06-22T10:42:56;43.15;;;39.03;;
22881;SDS011;11608;50.894;5.296;2023-06-22T10:45:22;34.30;;;31.35;;
22881;SDS011;11608;50.894;5.296;2023-06-22T10:47:48;34.63;;;31.65;;
22881;SDS011;11608;50.894;5.296;2023-06-22T10:50:14;33.63;;;30.83;;
22881;SDS011;11608;50.894;5.296;2023-06-22T10:52:40;36.85;;;33.67;;
22881;SDS011;11608;50.894;5.296;2023-06-22T10:55:07;39.33;;;35.65;;
22881;SDS011;11608;50.894;5.296;2023-06-22T10:57:33;33.30;;;30.48;;
22881;SDS011;11608;50.894;5.296;2023-06-22T10:59:59;41.65;;;37.70;;
22881;SDS011;11608;50.894;5.296;2023-06-22T11:02:25;39.90;;;36.35;;
22881;SDS011;11608;50.894;5.296;2023-06-22T11:04:53;32.78;;;29.88;;
22881;SDS011;11608;50.894;5.296;2023-06-22T11:07:19;35.33;;;32.22;;
22881;SDS011;11608;50.894;5.296;2023-06-22T11:09:45;40.47;;;36.92;;
22881;SDS011;11608;50.894;5.296;2023-06-22T11:12:11;41.03;;;37.22;;
22881;SDS011;11608;50.894;5.296;2023-06-22T11:14:38;46.60;;;42.33;;
22881;SDS011;11608;50.894;5.296;2023-06-22T11:17:04;45.17;;;41.13;;
22881;SDS011;11608;50.894;5.296;2023-06-22T11:19:30;46.97;;;42.35;;
22881;SDS011;11608;50.894;5.296;2023-06-22T11:21:56;49.70;;;45.05;;
22881;SDS011;11608;50.894;5.296;2023-06-22T11:24:22;50.72;;;46.05;;
22881;SDS011;11608;50.894;5.296;2023-06-22T11:26:48;50.15;;;44.92;;
22881;SDS011;11608;50.894;5.296;2023-06-22T11:29:14;51.95;;;46.92;;
22881;SDS011;11608;50.894;5.296;2023-06-22T11:31:40;52.72;;;47.85;;
22881;SDS011;11608;50.894;5.296;2023-06-22T11:34:08;51.65;;;46.85;;
22881;SDS011;11608;50.894;5.296;2023-06-22T11:36:34;52.85;;;47.70;;
22881;SDS011;11608;50.894;5.296;2023-06-22T11:39:00;51.40;;;46.72;;
22881;SDS011;11608;50.894;5.296;2023-06-22T11:41:27;49.70;;;45.20;;
22881;SDS011;11608;50.894;5.296;2023-06-22T11:43:53;49.53;;;44.88;;
22881;SDS011;11608;50.894;5.296;2023-06-22T11:46:19;47.88;;;43.58;;
22881;SDS011;11608;50.894;5.296;2023-06-22T11:48:45;49.85;;;45.25;;
22881;SDS011;11608;50.894;5.296;2023-06-22T11:51:11;50.70;;;46.10;;
22881;SDS011;11608;50.894;5.296;2023-06-22T11:53:37;52.63;;;47.53;;
22881;SDS011;11608;50.894;5.296;2023-06-22T11:56:03;47.58;;;43.33;;
22881;SDS011;11608;50.894;5.296;2023-06-22T11:58:29;52.08;;;46.97;;
22881;SDS011;11608;50.894;5.296;2023-06-22T12:00:55;48.67;;;44.28;;
22881;SDS011;11608;50.894;5.296;2023-06-22T12:03:21;50.22;;;45.25;;
22881;SDS011;11608;50.894;5.296;2023-06-22T12:05:47;51.20;;;46.38;;
22881;SDS011;11608;50.894;5.296;2023-06-22T12:08:13;49.72;;;45.03;;
22881;SDS011;11608;50.894;5.296;2023-06-22T12:10:39;51.63;;;46.83;;
22881;SDS011;11608;50.894;5.296;2023-06-22T12:13:05;52.25;;;47.13;;
22881;SDS011;11608;50.894;5.296;2023-06-22T12:15:31;51.47;;;46.65;;
22881;SDS011;11608;50.894;5.296;2023-06-22T12:17:57;52.97;;;47.80;;
22881;SDS011;11608;50.894;5.296;2023-06-22T12:20:23;48.95;;;44.40;;
22881;SDS011;11608;50.894;5.296;2023-06-22T12:22:49;53.47;;;48.42;;
22881;SDS011;11608;50.894;5.296;2023-06-22T12:25:17;50.65;;;45.67;;
22881;SDS011;11608;50.894;5.296;2023-06-22T12:27:43;49.30;;;44.60;;
22881;SDS011;11608;50.894;5.296;2023-06-22T12:30:09;54.72;;;49.55;;
22881;SDS011;11608;50.894;5.296;2023-06-22T12:32:35;49.75;;;45.17;;
22881;SDS011;11608;50.894;5.296;2023-06-22T12:35:01;53.33;;;48.08;;
22881;SDS011;11608;50.894;5.296;2023-06-22T12:37:27;54.53;;;49.22;;
22881;SDS011;11608;50.894;5.296;2023-06-22T12:39:54;54.95;;;49.58;;
22881;SDS011;11608;50.894;5.296;2023-06-22T12:42:20;53.30;;;48.40;;
22881;SDS011;11608;50.894;5.296;2023-06-22T12:44:46;51.05;;;46.45;;
22881;SDS011;11608;50.894;5.296;2023-06-22T12:47:12;54.25;;;48.92;;
22881;SDS011;11608;50.894;5.296;2023-06-22T12:49:38;52.90;;;47.88;;
22881;SDS011;11608;50.894;5.296;2023-06-22T12:52:13;53.22;;;48.08;;
22881;SDS011;11608;50.894;5.296;2023-06-22T12:54:39;54.92;;;49.63;;
22881;SDS011;11608;50.894;5.296;2023-06-22T12:57:05;54.90;;;49.38;;
22881;SDS011;11608;50.894;5.296;2023-06-22T12:59:31;57.35;;;51.55;;
22881;SDS011;11608;50.894;5.296;2023-06-22T13:01:57;56.75;;;51.22;;
22881;SDS011;11608;50.894;5.296;2023-06-22T13:04:23;56.83;;;51.25;;
22881;SDS011;11608;50.894;5.296;2023-06-22T13:06:49;56.70;;;51.05;;
22881;SDS011;11608;50.894;5.296;2023-06-22T13:09:19;55.33;;;49.92;;
22881;SDS011;11608;50.894;5.296;2023-06-22T13:11:45;51.72;;;46.35;;
22881;SDS011;11608;50.894;5.296;2023-06-22T13:14:11;51.17;;;46.30;;
22881;SDS011;11608;50.894;5.296;2023-06-22T13:16:37;52.28;;;47.25;;
22881;SDS011;11608;50.894;5.296;2023-06-22T13:19:03;52.55;;;47.33;;
22881;SDS011;11608;50.894;5.296;2023-06-22T13:21:30;50.45;;;45.40;;
22881;SDS011;11608;50.894;5.296;2023-06-22T13:23:56;48.10;;;43.58;;
22881;SDS011;11608;50.894;5.296;2023-06-22T13:26:22;48.20;;;43.90;;
22881;SDS011;11608;50.894;5.296;2023-06-22T13:28:48;47.90;;;43.40;;
22881;SDS011;11608;50.894;5.296;2023-06-22T13:31:14;43.72;;;39.65;;
22881;SDS011;11608;50.894;5.296;2023-06-22T13:33:40;45.78;;;41.47;;
22881;SDS011;11608;50.894;5.296;2023-06-22T13:36:07;44.67;;;40.70;;
22881;SDS011;11608;50.894;5.296;2023-06-22T13:38:34;45.78;;;41.53;;
22881;SDS011;11608;50.894;5.296;2023-06-22T13:41:03;44.30;;;40.30;;
22881;SDS011;11608;50.894;5.296;2023-06-22T13:43:29;43.45;;;39.55;;
22881;SDS011;11608;50.894;5.296;2023-06-22T13:45:55;42.72;;;38.92;;
22881;SDS011;11608;50.894;5.296;2023-06-22T13:48:21;46.92;;;42.13;;
22881;SDS011;11608;50.894;5.296;2023-06-22T13:50:48;46.03;;;41.33;;
22881;SDS011;11608;50.894;5.296;2023-06-22T13:53:14;45.42;;;41.13;;
22881;SDS011;11608;50.894;5.296;2023-06-22T13:55:44;41.10;;;37.35;;
22881;SDS011;11608;50.894;5.296;2023-06-22T13:58:10;44.60;;;40.10;;
22881;SDS011;11608;50.894;5.296;2023-06-22T14:00:36;43.28;;;39.17;;
22881;SDS011;11608;50.894;5.296;2023-06-22T14:03:02;42.63;;;38.28;;
22881;SDS011;11608;50.894;5.296;2023-06-22T14:05:28;41.47;;;37.67;;
22881;SDS011;11608;50.894;5.296;2023-06-22T14:07:54;43.83;;;39.63;;
22881;SDS011;11608;50.894;5.296;2023-06-22T14:10:20;43.53;;;39.22;;
22881;SDS011;11608;50.894;5.296;2023-06-22T14:12:46;41.22;;;37.58;;
22881;SDS011;11608;50.894;5.296;2023-06-22T14:15:12;44.65;;;40.40;;
22881;SDS011;11608;50.894;5.296;2023-06-22T14:17:38;42.40;;;38.53;;
22881;SDS011;11608;50.894;5.296;2023-06-22T14:20:05;42.20;;;38.38;;
22881;SDS011;11608;50.894;5.296;2023-06-22T14:22:33;41.35;;;37.65;;
22881;SDS011;11608;50.894;5.296;2023-06-22T14:25:00;42.53;;;38.83;;